ENEV/EVE METAR and TAF weather

Enter ICAO airport designator
Station Type Date Time Source
ENEV METAR 2021/05/10 21:50 UTC NOAA

ENEV 102150Z AUTO 35006KT 9999 NCD 03/01 Q1011 RMK WIND 1400FT 01014KT


Station Type Date Time Source
ENEV Decoded METAR 2021/05/10 21:50 UTC NOAA

Evenes, Norway (ENEV) 68-31N 016-41E 26M
May 10, 2021 - 05:50 PM EDT / 2021.05.10 2150 UTC
Wind: from the N (350 degrees) at 7 MPH (6 KT):0
Visibility: greater than 7 mile(s):0
Temperature: 37 F (3 C)
Dew Point: 33 F (1 C)
Relative Humidity: 86%
Pressure (altimeter): 29.85 in. Hg (1011 hPa)
ob: ENEV 102150Z AUTO 35006KT 9999 NCD 03/01 Q1011 RMK WIND 1400FT 01014KT
cycle: 22

Station Type Date Time Source
ENEV TAF 2010/02/05 07:50 UTC NOAA

METAR ENEV 050750Z 14007KT 9999 FEW040 SCT055 M04/M09 Q1019

Example: see airport list